sensor_id;sensor_type;location;lat;lon;timestamp;P1;durP1;ratioP1;P2;durP2;ratioP2
13720;SDS011;6932;51.438;5.470;2023-03-05T00:02:11;8.00;;;2.43;;
13720;SDS011;6932;51.438;5.470;2023-03-05T00:11:37;5.33;;;1.87;;
13720;SDS011;6932;51.438;5.470;2023-03-05T00:14:03;4.80;;;2.00;;
13720;SDS011;6932;51.438;5.470;2023-03-05T00:16:30;8.00;;;2.40;;
13720;SDS011;6932;51.438;5.470;2023-03-05T00:18:58;6.57;;;2.50;;
13720;SDS011;6932;51.438;5.470;2023-03-05T00:21:35;6.83;;;2.63;;
13720;SDS011;6932;51.438;5.470;2023-03-05T00:24:05;5.87;;;2.00;;
13720;SDS011;6932;51.438;5.470;2023-03-05T00:26:41;5.97;;;1.90;;
13720;SDS011;6932;51.438;5.470;2023-03-05T00:29:10;4.87;;;1.90;;
13720;SDS011;6932;51.438;5.470;2023-03-05T00:31:39;6.40;;;2.40;;
13720;SDS011;6932;51.438;5.470;2023-03-05T00:34:11;6.07;;;2.20;;
13720;SDS011;6932;51.438;5.470;2023-03-05T00:36:39;7.13;;;2.20;;
13720;SDS011;6932;51.438;5.470;2023-03-05T00:39:14;5.73;;;2.50;;
13720;SDS011;6932;51.438;5.470;2023-03-05T00:41:41;6.40;;;2.13;;
13720;SDS011;6932;51.438;5.470;2023-03-05T00:44:08;10.37;;;2.37;;
13720;SDS011;6932;51.438;5.470;2023-03-05T00:46:34;7.83;;;2.30;;
13720;SDS011;6932;51.438;5.470;2023-03-05T00:49:01;5.80;;;2.03;;
13720;SDS011;6932;51.438;5.470;2023-03-05T00:51:27;5.23;;;2.03;;
13720;SDS011;6932;51.438;5.470;2023-03-05T00:53:53;5.03;;;2.00;;
13720;SDS011;6932;51.438;5.470;2023-03-05T00:56:19;6.30;;;2.30;;
13720;SDS011;6932;51.438;5.470;2023-03-05T00:58:46;7.17;;;2.43;;
13720;SDS011;6932;51.438;5.470;2023-03-05T01:01:12;5.77;;;2.03;;
13720;SDS011;6932;51.438;5.470;2023-03-05T01:03:38;7.87;;;2.23;;
13720;SDS011;6932;51.438;5.470;2023-03-05T01:06:09;6.63;;;2.10;;
13720;SDS011;6932;51.438;5.470;2023-03-05T01:08:38;7.20;;;2.20;;
13720;SDS011;6932;51.438;5.470;2023-03-05T01:11:04;5.83;;;2.23;;
13720;SDS011;6932;51.438;5.470;2023-03-05T01:13:31;6.83;;;2.33;;
13720;SDS011;6932;51.438;5.470;2023-03-05T01:15:57;5.87;;;2.30;;
13720;SDS011;6932;51.438;5.470;2023-03-05T01:18:23;4.33;;;1.90;;
13720;SDS011;6932;51.438;5.470;2023-03-05T01:20:49;7.13;;;2.00;;
13720;SDS011;6932;51.438;5.470;2023-03-05T01:23:15;7.17;;;2.10;;
13720;SDS011;6932;51.438;5.470;2023-03-05T01:25:41;7.97;;;2.63;;
13720;SDS011;6932;51.438;5.470;2023-03-05T01:28:07;5.47;;;2.17;;
13720;SDS011;6932;51.438;5.470;2023-03-05T01:30:34;8.07;;;2.27;;
13720;SDS011;6932;51.438;5.470;2023-03-05T01:33:00;5.80;;;2.27;;
13720;SDS011;6932;51.438;5.470;2023-03-05T01:35:26;5.83;;;2.00;;
13720;SDS011;6932;51.438;5.470;2023-03-05T01:37:52;6.50;;;2.10;;
13720;SDS011;6932;51.438;5.470;2023-03-05T01:40:22;7.90;;;2.53;;
13720;SDS011;6932;51.438;5.470;2023-03-05T01:42:56;7.20;;;2.10;;
13720;SDS011;6932;51.438;5.470;2023-03-05T01:45:32;8.57;;;2.10;;
13720;SDS011;6932;51.438;5.470;2023-03-05T01:47:58;7.73;;;2.40;;
13720;SDS011;6932;51.438;5.470;2023-03-05T01:50:24;7.43;;;2.30;;
13720;SDS011;6932;51.438;5.470;2023-03-05T01:52:53;8.20;;;2.20;;
13720;SDS011;6932;51.438;5.470;2023-03-05T01:55:24;7.83;;;1.97;;
13720;SDS011;6932;51.438;5.470;2023-03-05T01:57:56;7.10;;;2.10;;
13720;SDS011;6932;51.438;5.470;2023-03-05T02:00:33;9.97;;;2.73;;
13720;SDS011;6932;51.438;5.470;2023-03-05T02:03:14;6.57;;;2.30;;
13720;SDS011;6932;51.438;5.470;2023-03-05T02:05:40;6.00;;;2.30;;
13720;SDS011;6932;51.438;5.470;2023-03-05T02:08:09;9.13;;;2.30;;
13720;SDS011;6932;51.438;5.470;2023-03-05T02:11:00;6.30;;;1.90;;
13720;SDS011;6932;51.438;5.470;2023-03-05T02:13:26;10.23;;;2.07;;
13720;SDS011;6932;51.438;5.470;2023-03-05T02:15:57;6.77;;;2.20;;
13720;SDS011;6932;51.438;5.470;2023-03-05T02:18:25;6.73;;;2.20;;
13720;SDS011;6932;51.438;5.470;2023-03-05T02:23:20;8.87;;;2.23;;
13720;SDS011;6932;51.438;5.470;2023-03-05T02:25:50;7.03;;;2.30;;
13720;SDS011;6932;51.438;5.470;2023-03-05T02:31:19;6.47;;;2.00;;
13720;SDS011;6932;51.438;5.470;2023-03-05T02:33:47;6.23;;;1.97;;
13720;SDS011;6932;51.438;5.470;2023-03-05T02:36:14;4.23;;;1.77;;
13720;SDS011;6932;51.438;5.470;2023-03-05T02:38:41;5.33;;;1.80;;
13720;SDS011;6932;51.438;5.470;2023-03-05T02:41:08;4.83;;;1.83;;
13720;SDS011;6932;51.438;5.470;2023-03-05T02:43:35;6.10;;;1.80;;
13720;SDS011;6932;51.438;5.470;2023-03-05T02:46:01;6.87;;;2.20;;
13720;SDS011;6932;51.438;5.470;2023-03-05T02:48:26;3.93;;;1.80;;
13720;SDS011;6932;51.438;5.470;2023-03-05T02:50:52;4.30;;;1.50;;
13720;SDS011;6932;51.438;5.470;2023-03-05T02:53:20;6.23;;;1.70;;
13720;SDS011;6932;51.438;5.470;2023-03-05T02:55:47;8.43;;;1.90;;
13720;SDS011;6932;51.438;5.470;2023-03-05T02:58:14;4.63;;;1.73;;
13720;SDS011;6932;51.438;5.470;2023-03-05T03:00:41;8.77;;;2.00;;
13720;SDS011;6932;51.438;5.470;2023-03-05T03:06:07;5.87;;;1.80;;
13720;SDS011;6932;51.438;5.470;2023-03-05T03:08:33;4.67;;;1.80;;
13720;SDS011;6932;51.438;5.470;2023-03-05T03:11:08;5.73;;;1.77;;
13720;SDS011;6932;51.438;5.470;2023-03-05T03:13:37;5.23;;;1.70;;
13720;SDS011;6932;51.438;5.470;2023-03-05T03:16:05;5.63;;;1.80;;
13720;SDS011;6932;51.438;5.470;2023-03-05T03:18:34;4.47;;;1.83;;
13720;SDS011;6932;51.438;5.470;2023-03-05T03:21:00;5.37;;;1.63;;
13720;SDS011;6932;51.438;5.470;2023-03-05T03:23:28;4.57;;;1.83;;
13720;SDS011;6932;51.438;5.470;2023-03-05T03:25:54;7.07;;;2.00;;
13720;SDS011;6932;51.438;5.470;2023-03-05T03:28:21;5.20;;;1.97;;
13720;SDS011;6932;51.438;5.470;2023-03-05T03:30:46;5.67;;;2.20;;
13720;SDS011;6932;51.438;5.470;2023-03-05T03:33:12;4.77;;;1.87;;
13720;SDS011;6932;51.438;5.470;2023-03-05T03:35:38;7.70;;;2.40;;
13720;SDS011;6932;51.438;5.470;2023-03-05T03:38:04;5.30;;;2.07;;
13720;SDS011;6932;51.438;5.470;2023-03-05T03:40:30;5.87;;;2.07;;
13720;SDS011;6932;51.438;5.470;2023-03-05T03:42:56;5.63;;;2.00;;
13720;SDS011;6932;51.438;5.470;2023-03-05T03:45:21;8.80;;;2.33;;
13720;SDS011;6932;51.438;5.470;2023-03-05T03:47:48;6.63;;;2.03;;
13720;SDS011;6932;51.438;5.470;2023-03-05T03:50:15;6.33;;;2.13;;
13720;SDS011;6932;51.438;5.470;2023-03-05T03:52:43;7.67;;;2.40;;
13720;SDS011;6932;51.438;5.470;2023-03-05T03:55:09;6.43;;;2.50;;
13720;SDS011;6932;51.438;5.470;2023-03-05T03:57:35;5.90;;;2.17;;
13720;SDS011;6932;51.438;5.470;2023-03-05T04:00:01;6.93;;;2.40;;
13720;SDS011;6932;51.438;5.470;2023-03-05T04:02:32;8.70;;;2.40;;
13720;SDS011;6932;51.438;5.470;2023-03-05T04:04:57;5.63;;;2.40;;
13720;SDS011;6932;51.438;5.470;2023-03-05T04:07:23;7.77;;;2.53;;
13720;SDS011;6932;51.438;5.470;2023-03-05T04:09:49;6.53;;;2.50;;
13720;SDS011;6932;51.438;5.470;2023-03-05T04:12:15;6.50;;;2.50;;
13720;SDS011;6932;51.438;5.470;2023-03-05T04:14:45;6.47;;;2.40;;
13720;SDS011;6932;51.438;5.470;2023-03-05T04:17:13;6.50;;;2.10;;
13720;SDS011;6932;51.438;5.470;2023-03-05T04:19:40;6.83;;;2.60;;
13720;SDS011;6932;51.438;5.470;2023-03-05T04:22:10;6.57;;;2.17;;
13720;SDS011;6932;51.438;5.470;2023-03-05T04:24:39;6.23;;;2.30;;
13720;SDS011;6932;51.438;5.470;2023-03-05T04:27:05;5.83;;;2.40;;
13720;SDS011;6932;51.438;5.470;2023-03-05T04:29:32;7.13;;;2.17;;
13720;SDS011;6932;51.438;5.470;2023-03-05T04:31:58;7.37;;;2.37;;
13720;SDS011;6932;51.438;5.470;2023-03-05T04:34:24;6.97;;;2.27;;
13720;SDS011;6932;51.438;5.470;2023-03-05T04:36:50;7.77;;;2.57;;
13720;SDS011;6932;51.438;5.470;2023-03-05T04:39:16;8.60;;;2.77;;
13720;SDS011;6932;51.438;5.470;2023-03-05T04:41:44;7.10;;;2.60;;
13720;SDS011;6932;51.438;5.470;2023-03-05T04:44:13;7.17;;;2.70;;
13720;SDS011;6932;51.438;5.470;2023-03-05T04:46:39;7.93;;;2.73;;
13720;SDS011;6932;51.438;5.470;2023-03-05T04:49:05;8.93;;;2.70;;
13720;SDS011;6932;51.438;5.470;2023-03-05T04:51:30;5.17;;;2.63;;
13720;SDS011;6932;51.438;5.470;2023-03-05T04:53:56;7.20;;;3.10;;
13720;SDS011;6932;51.438;5.470;2023-03-05T04:56:22;11.03;;;3.47;;
13720;SDS011;6932;51.438;5.470;2023-03-05T04:58:48;9.33;;;3.03;;
13720;SDS011;6932;51.438;5.470;2023-03-05T05:01:13;7.80;;;3.17;;
13720;SDS011;6932;51.438;5.470;2023-03-05T05:03:40;8.60;;;3.20;;
13720;SDS011;6932;51.438;5.470;2023-03-05T05:06:06;7.17;;;3.70;;
13720;SDS011;6932;51.438;5.470;2023-03-05T05:08:32;9.53;;;3.30;;
13720;SDS011;6932;51.438;5.470;2023-03-05T05:10:58;6.07;;;3.07;;
13720;SDS011;6932;51.438;5.470;2023-03-05T05:13:28;8.27;;;3.57;;
13720;SDS011;6932;51.438;5.470;2023-03-05T05:15:55;7.20;;;3.33;;
13720;SDS011;6932;51.438;5.470;2023-03-05T05:18:22;8.80;;;3.33;;
13720;SDS011;6932;51.438;5.470;2023-03-05T05:20:48;7.30;;;3.40;;
13720;SDS011;6932;51.438;5.470;2023-03-05T05:23:14;7.90;;;3.40;;
13720;SDS011;6932;51.438;5.470;2023-03-05T05:25:41;8.40;;;3.80;;
13720;SDS011;6932;51.438;5.470;2023-03-05T05:28:07;7.33;;;3.80;;
13720;SDS011;6932;51.438;5.470;2023-03-05T05:34:00;8.33;;;3.80;;
13720;SDS011;6932;51.438;5.470;2023-03-05T05:36:25;8.13;;;3.77;;
13720;SDS011;6932;51.438;5.470;2023-03-05T05:38:51;5.70;;;3.47;;
13720;SDS011;6932;51.438;5.470;2023-03-05T05:41:18;12.50;;;3.97;;
13720;SDS011;6932;51.438;5.470;2023-03-05T05:43:44;8.90;;;4.07;;
13720;SDS011;6932;51.438;5.470;2023-03-05T05:46:11;7.47;;;3.80;;
13720;SDS011;6932;51.438;5.470;2023-03-05T05:48:41;8.23;;;3.73;;
13720;SDS011;6932;51.438;5.470;2023-03-05T05:51:12;8.57;;;3.80;;
13720;SDS011;6932;51.438;5.470;2023-03-05T05:53:42;6.13;;;3.43;;
13720;SDS011;6932;51.438;5.470;2023-03-05T05:56:09;8.90;;;3.87;;
13720;SDS011;6932;51.438;5.470;2023-03-05T05:58:36;8.03;;;3.90;;
13720;SDS011;6932;51.438;5.470;2023-03-05T06:01:13;8.20;;;3.70;;
13720;SDS011;6932;51.438;5.470;2023-03-05T06:03:53;8.40;;;3.40;;
13720;SDS011;6932;51.438;5.470;2023-03-05T06:06:20;6.37;;;3.37;;
13720;SDS011;6932;51.438;5.470;2023-03-05T06:08:48;8.30;;;4.03;;
13720;SDS011;6932;51.438;5.470;2023-03-05T06:11:14;6.60;;;3.80;;
13720;SDS011;6932;51.438;5.470;2023-03-05T06:13:41;10.07;;;3.93;;
13720;SDS011;6932;51.438;5.470;2023-03-05T06:19:48;8.10;;;3.60;;
13720;SDS011;6932;51.438;5.470;2023-03-05T06:22:13;6.80;;;3.70;;
13720;SDS011;6932;51.438;5.470;2023-03-05T06:24:39;8.40;;;3.53;;
13720;SDS011;6932;51.438;5.470;2023-03-05T06:27:05;9.57;;;3.60;;
13720;SDS011;6932;51.438;5.470;2023-03-05T06:29:31;7.73;;;3.73;;
13720;SDS011;6932;51.438;5.470;2023-03-05T06:31:57;7.30;;;3.50;;
13720;SDS011;6932;51.438;5.470;2023-03-05T06:34:23;5.53;;;3.10;;
13720;SDS011;6932;51.438;5.470;2023-03-05T06:36:48;7.23;;;3.50;;
13720;SDS011;6932;51.438;5.470;2023-03-05T06:39:14;10.70;;;3.50;;
13720;SDS011;6932;51.438;5.470;2023-03-05T06:41:40;7.93;;;3.47;;
13720;SDS011;6932;51.438;5.470;2023-03-05T06:44:06;5.87;;;3.63;;
13720;SDS011;6932;51.438;5.470;2023-03-05T06:46:32;8.17;;;3.47;;
13720;SDS011;6932;51.438;5.470;2023-03-05T06:49:01;7.63;;;3.73;;
13720;SDS011;6932;51.438;5.470;2023-03-05T06:51:29;9.30;;;3.90;;
13720;SDS011;6932;51.438;5.470;2023-03-05T06:53:59;7.63;;;3.43;;
13720;SDS011;6932;51.438;5.470;2023-03-05T06:56:28;7.60;;;3.60;;
13720;SDS011;6932;51.438;5.470;2023-03-05T06:58:55;5.97;;;3.37;;
13720;SDS011;6932;51.438;5.470;2023-03-05T07:01:21;6.90;;;3.20;;
13720;SDS011;6932;51.438;5.470;2023-03-05T07:03:51;5.47;;;3.23;;
13720;SDS011;6932;51.438;5.470;2023-03-05T07:06:19;6.30;;;3.43;;
13720;SDS011;6932;51.438;5.470;2023-03-05T07:08:46;8.13;;;3.33;;
13720;SDS011;6932;51.438;5.470;2023-03-05T07:11:13;7.00;;;3.00;;
13720;SDS011;6932;51.438;5.470;2023-03-05T07:13:42;6.30;;;3.07;;
13720;SDS011;6932;51.438;5.470;2023-03-05T07:16:10;6.57;;;3.10;;
13720;SDS011;6932;51.438;5.470;2023-03-05T07:18:46;5.77;;;3.10;;
13720;SDS011;6932;51.438;5.470;2023-03-05T07:21:16;5.97;;;2.80;;
13720;SDS011;6932;51.438;5.470;2023-03-05T07:23:49;5.27;;;3.20;;
13720;SDS011;6932;51.438;5.470;2023-03-05T07:26:17;6.33;;;2.97;;
13720;SDS011;6932;51.438;5.470;2023-03-05T07:28:50;5.07;;;2.50;;
13720;SDS011;6932;51.438;5.470;2023-03-05T07:31:17;3.90;;;2.57;;
13720;SDS011;6932;51.438;5.470;2023-03-05T07:33:46;4.40;;;2.50;;
13720;SDS011;6932;51.438;5.470;2023-03-05T07:36:14;7.27;;;2.77;;
13720;SDS011;6932;51.438;5.470;2023-03-05T07:38:41;5.80;;;2.67;;
13720;SDS011;6932;51.438;5.470;2023-03-05T07:41:11;6.67;;;2.63;;
13720;SDS011;6932;51.438;5.470;2023-03-05T07:43:44;4.97;;;2.43;;
13720;SDS011;6932;51.438;5.470;2023-03-05T07:46:16;4.17;;;2.30;;
13720;SDS011;6932;51.438;5.470;2023-03-05T07:48:44;5.17;;;2.30;;
13720;SDS011;6932;51.438;5.470;2023-03-05T07:51:15;10.70;;;2.40;;
13720;SDS011;6932;51.438;5.470;2023-03-05T07:53:44;3.97;;;2.07;;
13720;SDS011;6932;51.438;5.470;2023-03-05T07:56:12;5.70;;;2.33;;
13720;SDS011;6932;51.438;5.470;2023-03-05T07:58:44;5.20;;;2.27;;
13720;SDS011;6932;51.438;5.470;2023-03-05T08:01:11;4.27;;;2.20;;
13720;SDS011;6932;51.438;5.470;2023-03-05T08:03:41;4.53;;;2.00;;
13720;SDS011;6932;51.438;5.470;2023-03-05T08:06:08;3.57;;;1.90;;
13720;SDS011;6932;51.438;5.470;2023-03-05T08:08:36;4.43;;;2.00;;
13720;SDS011;6932;51.438;5.470;2023-03-05T08:11:03;5.30;;;2.00;;
13720;SDS011;6932;51.438;5.470;2023-03-05T08:13:36;3.77;;;2.00;;
13720;SDS011;6932;51.438;5.470;2023-03-05T08:16:04;4.80;;;2.30;;
13720;SDS011;6932;51.438;5.470;2023-03-05T08:18:32;3.80;;;1.90;;
13720;SDS011;6932;51.438;5.470;2023-03-05T08:21:03;3.40;;;1.90;;
13720;SDS011;6932;51.438;5.470;2023-03-05T08:23:39;3.60;;;1.70;;
13720;SDS011;6932;51.438;5.470;2023-03-05T08:26:21;6.63;;;2.10;;
13720;SDS011;6932;51.438;5.470;2023-03-05T08:28:50;4.53;;;2.10;;
13720;SDS011;6932;51.438;5.470;2023-03-05T08:31:17;6.30;;;2.17;;
13720;SDS011;6932;51.438;5.470;2023-03-05T08:36:36;4.90;;;1.90;;
13720;SDS011;6932;51.438;5.470;2023-03-05T08:39:02;3.10;;;1.80;;
13720;SDS011;6932;51.438;5.470;2023-03-05T08:41:30;3.73;;;2.10;;
13720;SDS011;6932;51.438;5.470;2023-03-05T08:43:57;4.57;;;2.30;;
13720;SDS011;6932;51.438;5.470;2023-03-05T08:46:22;2.93;;;1.90;;
13720;SDS011;6932;51.438;5.470;2023-03-05T08:48:49;2.20;;;1.73;;
13720;SDS011;6932;51.438;5.470;2023-03-05T08:51:15;5.30;;;1.70;;
13720;SDS011;6932;51.438;5.470;2023-03-05T08:53:44;3.13;;;1.90;;
13720;SDS011;6932;51.438;5.470;2023-03-05T08:56:12;4.57;;;1.80;;
13720;SDS011;6932;51.438;5.470;2023-03-05T08:58:38;4.17;;;1.97;;
13720;SDS011;6932;51.438;5.470;2023-03-05T09:01:04;3.03;;;1.70;;
13720;SDS011;6932;51.438;5.470;2023-03-05T09:03:31;4.20;;;1.80;;
13720;SDS011;6932;51.438;5.470;2023-03-05T09:06:00;3.70;;;1.63;;
13720;SDS011;6932;51.438;5.470;2023-03-05T09:08:28;3.33;;;1.90;;
13720;SDS011;6932;51.438;5.470;2023-03-05T09:10:54;3.27;;;1.70;;
13720;SDS011;6932;51.438;5.470;2023-03-05T09:13:21;1.70;;;1.50;;
13720;SDS011;6932;51.438;5.470;2023-03-05T09:15:56;3.07;;;1.70;;
13720;SDS011;6932;51.438;5.470;2023-03-05T09:18:28;2.90;;;1.50;;
13720;SDS011;6932;51.438;5.470;2023-03-05T09:20:55;2.40;;;1.50;;
13720;SDS011;6932;51.438;5.470;2023-03-05T09:23:21;2.37;;;1.37;;
13720;SDS011;6932;51.438;5.470;2023-03-05T09:25:48;2.80;;;1.40;;
13720;SDS011;6932;51.438;5.470;2023-03-05T09:28:14;2.20;;;1.00;;
13720;SDS011;6932;51.438;5.470;2023-03-05T09:30:41;2.33;;;1.17;;
13720;SDS011;6932;51.438;5.470;2023-03-05T09:33:06;1.30;;;0.83;;
13720;SDS011;6932;51.438;5.470;2023-03-05T09:35:33;1.07;;;0.83;;
13720;SDS011;6932;51.438;5.470;2023-03-05T09:38:01;1.87;;;1.00;;
13720;SDS011;6932;51.438;5.470;2023-03-05T09:40:31;1.27;;;0.77;;
13720;SDS011;6932;51.438;5.470;2023-03-05T09:43:25;2.27;;;1.23;;
13720;SDS011;6932;51.438;5.470;2023-03-05T09:52:12;1.93;;;1.10;;
13720;SDS011;6932;51.438;5.470;2023-03-05T09:54:44;2.87;;;1.40;;
13720;SDS011;6932;51.438;5.470;2023-03-05T09:57:25;2.20;;;1.37;;
13720;SDS011;6932;51.438;5.470;2023-03-05T10:00:06;3.90;;;1.30;;
13720;SDS011;6932;51.438;5.470;2023-03-05T10:02:58;3.10;;;1.57;;
13720;SDS011;6932;51.438;5.470;2023-03-05T10:08:43;1.87;;;1.30;;
13720;SDS011;6932;51.438;5.470;2023-03-05T10:26:12;2.77;;;1.80;;
13720;SDS011;6932;51.438;5.470;2023-03-05T10:29:28;2.93;;;1.87;;
13720;SDS011;6932;51.438;5.470;2023-03-05T10:40:55;3.93;;;2.17;;
13720;SDS011;6932;51.438;5.470;2023-03-05T10:43:55;4.20;;;2.07;;
13720;SDS011;6932;51.438;5.470;2023-03-05T10:46:42;4.93;;;2.40;;
13720;SDS011;6932;51.438;5.470;2023-03-05T10:51:42;3.27;;;2.07;;
13720;SDS011;6932;51.438;5.470;2023-03-05T10:57:03;5.63;;;2.10;;
13720;SDS011;6932;51.438;5.470;2023-03-05T10:59:46;2.73;;;1.80;;
13720;SDS011;6932;51.438;5.470;2023-03-05T11:02:17;3.37;;;1.90;;
13720;SDS011;6932;51.438;5.470;2023-03-05T11:04:45;3.53;;;2.00;;
13720;SDS011;6932;51.438;5.470;2023-03-05T11:13:27;2.27;;;1.67;;
13720;SDS011;6932;51.438;5.470;2023-03-05T11:15:57;2.70;;;1.53;;
13720;SDS011;6932;51.438;5.470;2023-03-05T11:18:37;3.13;;;1.70;;
13720;SDS011;6932;51.438;5.470;2023-03-05T11:21:07;1.67;;;1.20;;
13720;SDS011;6932;51.438;5.470;2023-03-05T11:23:37;1.90;;;1.27;;
13720;SDS011;6932;51.438;5.470;2023-03-05T11:26:24;2.33;;;1.20;;
13720;SDS011;6932;51.438;5.470;2023-03-05T11:39:14;2.70;;;1.70;;
13720;SDS011;6932;51.438;5.470;2023-03-05T11:41:45;3.27;;;1.80;;
13720;SDS011;6932;51.438;5.470;2023-03-05T11:46:58;1.50;;;1.30;;
13720;SDS011;6932;51.438;5.470;2023-03-05T11:50:03;1.57;;;1.07;;
13720;SDS011;6932;51.438;5.470;2023-03-05T11:55:19;2.73;;;1.23;;
13720;SDS011;6932;51.438;5.470;2023-03-05T11:57:52;2.03;;;1.20;;
13720;SDS011;6932;51.438;5.470;2023-03-05T12:00:35;2.07;;;1.07;;
13720;SDS011;6932;51.438;5.470;2023-03-05T12:03:06;2.23;;;1.13;;
13720;SDS011;6932;51.438;5.470;2023-03-05T12:05:41;2.17;;;1.10;;
13720;SDS011;6932;51.438;5.470;2023-03-05T12:08:19;2.37;;;1.30;;
13720;SDS011;6932;51.438;5.470;2023-03-05T12:11:02;1.63;;;1.15;;
13720;SDS011;6932;51.438;5.470;2023-03-05T12:13:42;1.37;;;0.90;;
13720;SDS011;6932;51.438;5.470;2023-03-05T12:19:20;2.87;;;1.10;;
13720;SDS011;6932;51.438;5.470;2023-03-05T12:22:30;7.70;;;1.30;;
13720;SDS011;6932;51.438;5.470;2023-03-05T12:27:58;1.10;;;0.80;;
13720;SDS011;6932;51.438;5.470;2023-03-05T12:33:27;1.50;;;1.10;;
13720;SDS011;6932;51.438;5.470;2023-03-05T12:38:54;2.37;;;1.20;;
13720;SDS011;6932;51.438;5.470;2023-03-05T12:46:31;1.47;;;1.27;;
13720;SDS011;6932;51.438;5.470;2023-03-05T12:51:56;3.17;;;1.40;;
13720;SDS011;6932;51.438;5.470;2023-03-05T12:54:32;2.50;;;1.27;;
13720;SDS011;6932;51.438;5.470;2023-03-05T12:57:20;3.40;;;1.40;;
13720;SDS011;6932;51.438;5.470;2023-03-05T13:00:07;3.27;;;1.30;;
13720;SDS011;6932;51.438;5.470;2023-03-05T13:02:45;3.67;;;1.40;;
13720;SDS011;6932;51.438;5.470;2023-03-05T13:07:51;1.87;;;1.33;;
13720;SDS011;6932;51.438;5.470;2023-03-05T13:10:22;2.83;;;1.40;;
13720;SDS011;6932;51.438;5.470;2023-03-05T13:12:52;2.77;;;1.47;;
13720;SDS011;6932;51.438;5.470;2023-03-05T13:15:22;2.87;;;1.40;;
13720;SDS011;6932;51.438;5.470;2023-03-05T13:17:57;2.43;;;1.20;;
13720;SDS011;6932;51.438;5.470;2023-03-05T13:25:58;2.87;;;1.47;;
13720;SDS011;6932;51.438;5.470;2023-03-05T13:29:05;2.17;;;1.30;;
13720;SDS011;6932;51.438;5.470;2023-03-05T13:31:46;2.00;;;1.30;;
13720;SDS011;6932;51.438;5.470;2023-03-05T13:34:23;2.47;;;1.40;;
13720;SDS011;6932;51.438;5.470;2023-03-05T13:36:56;2.50;;;1.30;;
13720;SDS011;6932;51.438;5.470;2023-03-05T13:43:15;1.97;;;1.40;;
13720;SDS011;6932;51.438;5.470;2023-03-05T13:45:46;1.50;;;1.40;;
13720;SDS011;6932;51.438;5.470;2023-03-05T13:48:20;2.20;;;1.30;;
13720;SDS011;6932;51.438;5.470;2023-03-05T13:50:46;3.53;;;1.60;;
13720;SDS011;6932;51.438;5.470;2023-03-05T13:53:27;1.40;;;1.30;;
13720;SDS011;6932;51.438;5.470;2023-03-05T14:03:25;1.97;;;1.40;;
13720;SDS011;6932;51.438;5.470;2023-03-05T14:05:53;3.63;;;1.60;;
13720;SDS011;6932;51.438;5.470;2023-03-05T14:08:20;3.37;;;1.60;;
13720;SDS011;6932;51.438;5.470;2023-03-05T14:10:50;3.80;;;1.70;;
13720;SDS011;6932;51.438;5.470;2023-03-05T14:13:19;2.67;;;1.73;;
13720;SDS011;6932;51.438;5.470;2023-03-05T14:18:40;2.17;;;1.60;;
13720;SDS011;6932;51.438;5.470;2023-03-05T14:24:52;2.60;;;1.80;;
13720;SDS011;6932;51.438;5.470;2023-03-05T14:27:18;2.93;;;1.70;;
13720;SDS011;6932;51.438;5.470;2023-03-05T14:29:46;2.13;;;1.50;;
13720;SDS011;6932;51.438;5.470;2023-03-05T14:32:27;4.50;;;1.90;;
13720;SDS011;6932;51.438;5.470;2023-03-05T14:34:58;2.07;;;1.60;;
13720;SDS011;6932;51.438;5.470;2023-03-05T14:37:30;2.30;;;1.63;;
13720;SDS011;6932;51.438;5.470;2023-03-05T14:40:02;1.97;;;1.50;;
13720;SDS011;6932;51.438;5.470;2023-03-05T14:47:55;1.50;;;1.10;;
13720;SDS011;6932;51.438;5.470;2023-03-05T14:50:27;3.27;;;1.50;;
13720;SDS011;6932;51.438;5.470;2023-03-05T14:53:06;3.37;;;1.50;;
13720;SDS011;6932;51.438;5.470;2023-03-05T14:55:38;1.93;;;1.33;;
13720;SDS011;6932;51.438;5.470;2023-03-05T15:01:48;1.40;;;1.30;;
13720;SDS011;6932;51.438;5.470;2023-03-05T15:04:14;3.33;;;1.60;;
13720;SDS011;6932;51.438;5.470;2023-03-05T15:06:43;2.77;;;1.50;;
13720;SDS011;6932;51.438;5.470;2023-03-05T15:09:14;3.53;;;1.80;;
13720;SDS011;6932;51.438;5.470;2023-03-05T15:11:43;2.60;;;1.57;;
13720;SDS011;6932;51.438;5.470;2023-03-05T15:14:10;3.03;;;1.40;;
13720;SDS011;6932;51.438;5.470;2023-03-05T15:16:36;2.70;;;1.70;;
13720;SDS011;6932;51.438;5.470;2023-03-05T15:22:40;3.30;;;1.60;;
13720;SDS011;6932;51.438;5.470;2023-03-05T15:25:06;2.90;;;1.80;;
13720;SDS011;6932;51.438;5.470;2023-03-05T15:27:33;2.17;;;1.70;;
13720;SDS011;6932;51.438;5.470;2023-03-05T15:29:58;4.33;;;2.07;;
13720;SDS011;6932;51.438;5.470;2023-03-05T15:32:25;2.87;;;1.90;;
13720;SDS011;6932;51.438;5.470;2023-03-05T15:34:53;2.23;;;1.80;;
13720;SDS011;6932;51.438;5.470;2023-03-05T15:37:19;2.40;;;1.80;;
13720;SDS011;6932;51.438;5.470;2023-03-05T15:39:57;4.67;;;1.87;;
13720;SDS011;6932;51.438;5.470;2023-03-05T15:42:22;2.07;;;1.60;;
13720;SDS011;6932;51.438;5.470;2023-03-05T15:44:48;2.80;;;1.93;;
13720;SDS011;6932;51.438;5.470;2023-03-05T15:47:14;3.50;;;1.80;;
13720;SDS011;6932;51.438;5.470;2023-03-05T15:49:40;3.67;;;2.00;;
13720;SDS011;6932;51.438;5.470;2023-03-05T15:52:05;6.90;;;2.20;;
13720;SDS011;6932;51.438;5.470;2023-03-05T15:54:31;3.27;;;2.20;;
13720;SDS011;6932;51.438;5.470;2023-03-05T15:56:59;2.80;;;1.87;;
13720;SDS011;6932;51.438;5.470;2023-03-05T15:59:25;3.90;;;2.13;;
13720;SDS011;6932;51.438;5.470;2023-03-05T16:01:51;3.67;;;2.40;;
13720;SDS011;6932;51.438;5.470;2023-03-05T16:04:17;5.03;;;2.67;;
13720;SDS011;6932;51.438;5.470;2023-03-05T16:06:45;4.10;;;2.60;;
13720;SDS011;6932;51.438;5.470;2023-03-05T16:09:14;3.07;;;2.40;;
13720;SDS011;6932;51.438;5.470;2023-03-05T16:11:44;4.80;;;2.63;;
13720;SDS011;6932;51.438;5.470;2023-03-05T16:14:12;4.27;;;2.40;;
13720;SDS011;6932;51.438;5.470;2023-03-05T16:16:45;5.30;;;2.73;;
13720;SDS011;6932;51.438;5.470;2023-03-05T16:22:30;5.03;;;2.70;;
13720;SDS011;6932;51.438;5.470;2023-03-05T16:24:56;3.40;;;2.50;;
13720;SDS011;6932;51.438;5.470;2023-03-05T16:30:15;5.40;;;2.87;;
13720;SDS011;6932;51.438;5.470;2023-03-05T16:32:42;5.10;;;2.57;;
13720;SDS011;6932;51.438;5.470;2023-03-05T16:35:08;4.40;;;2.73;;
13720;SDS011;6932;51.438;5.470;2023-03-05T16:37:36;4.23;;;2.90;;
13720;SDS011;6932;51.438;5.470;2023-03-05T16:40:03;5.53;;;2.90;;
13720;SDS011;6932;51.438;5.470;2023-03-05T16:42:29;4.57;;;2.90;;
13720;SDS011;6932;51.438;5.470;2023-03-05T16:44:55;4.13;;;2.70;;
13720;SDS011;6932;51.438;5.470;2023-03-05T16:47:23;4.23;;;2.70;;
13720;SDS011;6932;51.438;5.470;2023-03-05T16:49:49;4.73;;;2.80;;
13720;SDS011;6932;51.438;5.470;2023-03-05T16:52:15;6.27;;;3.03;;
13720;SDS011;6932;51.438;5.470;2023-03-05T16:54:42;5.20;;;2.70;;
13720;SDS011;6932;51.438;5.470;2023-03-05T16:57:08;5.10;;;2.73;;
13720;SDS011;6932;51.438;5.470;2023-03-05T16:59:35;4.20;;;2.67;;
13720;SDS011;6932;51.438;5.470;2023-03-05T17:02:02;5.30;;;3.00;;
13720;SDS011;6932;51.438;5.470;2023-03-05T17:04:28;4.53;;;2.70;;
13720;SDS011;6932;51.438;5.470;2023-03-05T17:06:55;3.27;;;2.30;;
13720;SDS011;6932;51.438;5.470;2023-03-05T17:09:21;2.30;;;1.90;;
13720;SDS011;6932;51.438;5.470;2023-03-05T17:11:50;3.53;;;2.43;;
13720;SDS011;6932;51.438;5.470;2023-03-05T17:14:17;4.00;;;2.30;;
13720;SDS011;6932;51.438;5.470;2023-03-05T17:20:34;3.03;;;1.77;;
13720;SDS011;6932;51.438;5.470;2023-03-05T17:23:00;5.50;;;2.00;;
13720;SDS011;6932;51.438;5.470;2023-03-05T17:25:26;4.10;;;2.03;;
13720;SDS011;6932;51.438;5.470;2023-03-05T17:27:53;3.17;;;1.83;;
13720;SDS011;6932;51.438;5.470;2023-03-05T17:30:18;4.03;;;2.10;;
13720;SDS011;6932;51.438;5.470;2023-03-05T17:32:44;3.33;;;2.20;;
13720;SDS011;6932;51.438;5.470;2023-03-05T17:35:17;3.73;;;2.13;;
13720;SDS011;6932;51.438;5.470;2023-03-05T17:37:45;4.77;;;2.17;;
13720;SDS011;6932;51.438;5.470;2023-03-05T17:40:12;4.33;;;2.37;;
13720;SDS011;6932;51.438;5.470;2023-03-05T17:42:39;3.43;;;2.10;;
13720;SDS011;6932;51.438;5.470;2023-03-05T17:45:05;5.07;;;2.10;;
13720;SDS011;6932;51.438;5.470;2023-03-05T17:47:31;2.97;;;2.20;;
13720;SDS011;6932;51.438;5.470;2023-03-05T17:49:58;4.77;;;2.70;;